sensor_id;sensor_type;location;lat;lon;timestamp;pressure;altitude;pressure_sealevel;temperature;humidity
33151;BME280;19508;42.578;23.416;2023-03-04T00:01:37;93700.97;;;7.51;78.48
33151;BME280;19508;42.578;23.416;2023-03-04T00:04:03;93686.75;;;7.62;77.79
33151;BME280;19508;42.578;23.416;2023-03-04T00:06:28;93690.00;;;7.64;77.87
33151;BME280;19508;42.578;23.416;2023-03-04T00:08:53;93694.06;;;7.27;79.02
33151;BME280;19508;42.578;23.416;2023-03-04T00:11:19;93693.72;;;7.23;79.91
33151;BME280;19508;42.578;23.416;2023-03-04T00:13:44;93693.72;;;7.23;79.93
33151;BME280;19508;42.578;23.416;2023-03-04T00:16:10;93701.88;;;7.28;80.00
33151;BME280;19508;42.578;23.416;2023-03-04T00:18:35;93689.38;;;7.34;80.33
33151;BME280;19508;42.578;23.416;2023-03-04T00:21:01;93689.94;;;7.48;79.46
33151;BME280;19508;42.578;23.416;2023-03-04T00:23:26;93691.94;;;7.41;79.86
33151;BME280;19508;42.578;23.416;2023-03-04T00:25:52;93684.72;;;7.41;79.78
33151;BME280;19508;42.578;23.416;2023-03-04T00:28:17;93683.91;;;7.41;79.96
33151;BME280;19508;42.578;23.416;2023-03-04T00:30:43;93684.91;;;7.51;79.71
33151;BME280;19508;42.578;23.416;2023-03-04T00:33:08;93673.06;;;7.47;79.54
33151;BME280;19508;42.578;23.416;2023-03-04T00:35:34;93689.56;;;7.56;79.58
33151;BME280;19508;42.578;23.416;2023-03-04T00:37:59;93687.22;;;7.59;79.43
33151;BME280;19508;42.578;23.416;2023-03-04T00:40:25;93680.78;;;7.60;79.37
33151;BME280;19508;42.578;23.416;2023-03-04T00:42:51;93687.22;;;7.59;79.20
33151;BME280;19508;42.578;23.416;2023-03-04T00:45:17;93690.69;;;7.60;79.43
33151;BME280;19508;42.578;23.416;2023-03-04T00:47:42;93686.28;;;7.66;79.10
33151;BME280;19508;42.578;23.416;2023-03-04T00:50:08;93684.84;;;7.75;78.32
33151;BME280;19508;42.578;23.416;2023-03-04T00:52:34;93679.47;;;7.75;78.19
33151;BME280;19508;42.578;23.416;2023-03-04T00:54:59;93674.59;;;7.72;78.39
33151;BME280;19508;42.578;23.416;2023-03-04T00:57:25;93675.41;;;7.72;78.45
33151;BME280;19508;42.578;23.416;2023-03-04T00:59:50;93676.22;;;7.73;77.98
33151;BME280;19508;42.578;23.416;2023-03-04T01:02:15;93670.88;;;7.73;78.00
33151;BME280;19508;42.578;23.416;2023-03-04T01:04:41;93661.59;;;7.63;78.12
33151;BME280;19508;42.578;23.416;2023-03-04T01:07:07;93668.03;;;7.51;78.57
33151;BME280;19508;42.578;23.416;2023-03-04T01:09:32;93662.53;;;7.57;78.58
33151;BME280;19508;42.578;23.416;2023-03-04T01:11:58;93668.56;;;7.64;78.36
33151;BME280;19508;42.578;23.416;2023-03-04T01:14:23;93663.88;;;7.72;77.66
33151;BME280;19508;42.578;23.416;2023-03-04T01:16:49;93662.72;;;7.68;77.80
33151;BME280;19508;42.578;23.416;2023-03-04T01:19:14;93659.56;;;7.71;77.83
33151;BME280;19508;42.578;23.416;2023-03-04T01:21:40;93656.22;;;7.63;77.87
33151;BME280;19508;42.578;23.416;2023-03-04T01:24:05;93651.56;;;7.59;77.72
33151;BME280;19508;42.578;23.416;2023-03-04T01:26:31;93649.31;;;7.39;78.21
33151;BME280;19508;42.578;23.416;2023-03-04T01:28:56;93645.88;;;7.15;79.14
33151;BME280;19508;42.578;23.416;2023-03-04T01:31:21;93644.75;;;6.99;79.21
33151;BME280;19508;42.578;23.416;2023-03-04T01:33:47;93651.88;;;6.94;80.22
33151;BME280;19508;42.578;23.416;2023-03-04T01:36:12;93646.13;;;7.14;79.95
33151;BME280;19508;42.578;23.416;2023-03-04T01:38:38;93644.00;;;7.16;79.48
33151;BME280;19508;42.578;23.416;2023-03-04T01:41:03;93647.94;;;7.25;79.37
33151;BME280;19508;42.578;23.416;2023-03-04T01:43:30;93651.06;;;7.33;79.08
33151;BME280;19508;42.578;23.416;2023-03-04T01:45:56;93635.16;;;7.27;79.37
33151;BME280;19508;42.578;23.416;2023-03-04T01:48:32;93639.09;;;7.36;79.55
33151;BME280;19508;42.578;23.416;2023-03-04T01:51:00;93630.81;;;7.38;79.41
33151;BME280;19508;42.578;23.416;2023-03-04T01:53:28;93641.84;;;7.41;79.39
33151;BME280;19508;42.578;23.416;2023-03-04T01:56:04;93638.59;;;7.39;79.35
33151;BME280;19508;42.578;23.416;2023-03-04T01:58:35;93620.22;;;7.31;79.49
33151;BME280;19508;42.578;23.416;2023-03-04T02:01:00;93628.38;;;7.36;79.53
33151;BME280;19508;42.578;23.416;2023-03-04T02:03:26;93634.44;;;7.31;79.71
33151;BME280;19508;42.578;23.416;2023-03-04T02:05:52;93638.78;;;7.21;80.13
33151;BME280;19508;42.578;23.416;2023-03-04T02:08:23;93635.53;;;7.19;80.28
33151;BME280;19508;42.578;23.416;2023-03-04T02:10:50;93628.16;;;7.26;80.27
33151;BME280;19508;42.578;23.416;2023-03-04T02:13:16;93627.00;;;7.22;80.26
33151;BME280;19508;42.578;23.416;2023-03-04T02:15:43;93623.09;;;7.13;80.60
33151;BME280;19508;42.578;23.416;2023-03-04T02:18:23;93628.69;;;7.11;81.11
33151;BME280;19508;42.578;23.416;2023-03-04T02:20:55;93637.72;;;7.22;80.69
33151;BME280;19508;42.578;23.416;2023-03-04T02:23:48;93634.84;;;7.12;81.10
33151;BME280;19508;42.578;23.416;2023-03-04T02:26:22;93638.34;;;7.12;81.24
33151;BME280;19508;42.578;23.416;2023-03-04T02:28:51;93632.16;;;7.12;81.02
33151;BME280;19508;42.578;23.416;2023-03-04T02:31:24;93630.25;;;7.24;80.74
33151;BME280;19508;42.578;23.416;2023-03-04T02:33:51;93630.38;;;7.29;80.35
33151;BME280;19508;42.578;23.416;2023-03-04T02:36:18;93629.75;;;7.39;79.78
33151;BME280;19508;42.578;23.416;2023-03-04T02:38:43;93622.41;;;7.46;79.28
33151;BME280;19508;42.578;23.416;2023-03-04T02:41:14;93614.97;;;7.36;79.60
33151;BME280;19508;42.578;23.416;2023-03-04T02:43:43;93615.78;;;7.37;79.59
33151;BME280;19508;42.578;23.416;2023-03-04T02:46:11;93625.31;;;7.44;79.44
33151;BME280;19508;42.578;23.416;2023-03-04T02:48:37;93626.25;;;7.38;79.25
33151;BME280;19508;42.578;23.416;2023-03-04T02:51:02;93623.00;;;7.36;79.37
33151;BME280;19508;42.578;23.416;2023-03-04T02:53:28;93620.91;;;7.38;78.87
33151;BME280;19508;42.578;23.416;2023-03-04T02:55:53;93607.22;;;7.23;78.91
33151;BME280;19508;42.578;23.416;2023-03-04T02:58:19;93617.31;;;7.32;78.22
33151;BME280;19508;42.578;23.416;2023-03-04T03:00:44;93612.69;;;7.16;78.60
33151;BME280;19508;42.578;23.416;2023-03-04T03:03:09;93617.38;;;7.09;78.65
33151;BME280;19508;42.578;23.416;2023-03-04T03:05:36;93614.69;;;7.09;77.88
33151;BME280;19508;42.578;23.416;2023-03-04T03:08:01;93620.91;;;6.74;78.30
33151;BME280;19508;42.578;23.416;2023-03-04T03:10:27;93618.75;;;6.60;78.26
33151;BME280;19508;42.578;23.416;2023-03-04T03:12:52;93623.88;;;6.49;77.62
33151;BME280;19508;42.578;23.416;2023-03-04T03:15:18;93626.28;;;6.28;77.59
33151;BME280;19508;42.578;23.416;2023-03-04T03:17:44;93611.97;;;5.99;77.99
33151;BME280;19508;42.578;23.416;2023-03-04T03:20:11;93611.03;;;5.93;77.28
33151;BME280;19508;42.578;23.416;2023-03-04T03:22:37;93622.22;;;5.72;78.67
33151;BME280;19508;42.578;23.416;2023-03-04T03:25:04;93618.34;;;5.56;79.04
33151;BME280;19508;42.578;23.416;2023-03-04T03:27:29;93608.06;;;5.41;79.46
33151;BME280;19508;42.578;23.416;2023-03-04T03:29:55;93606.84;;;5.25;80.07
33151;BME280;19508;42.578;23.416;2023-03-04T03:32:20;93610.72;;;5.11;80.50
33151;BME280;19508;42.578;23.416;2023-03-04T03:34:46;93613.25;;;5.06;81.08
33151;BME280;19508;42.578;23.416;2023-03-04T03:37:12;93619.34;;;5.13;80.30
33151;BME280;19508;42.578;23.416;2023-03-04T03:39:37;93607.94;;;4.88;80.22
33151;BME280;19508;42.578;23.416;2023-03-04T03:42:03;93609.25;;;4.78;80.65
33151;BME280;19508;42.578;23.416;2023-03-04T03:44:28;93601.06;;;4.62;80.53
33151;BME280;19508;42.578;23.416;2023-03-04T03:46:54;93602.75;;;4.56;80.88
33151;BME280;19508;42.578;23.416;2023-03-04T03:49:19;93605.19;;;4.58;80.48
33151;BME280;19508;42.578;23.416;2023-03-04T03:51:44;93613.50;;;4.49;80.75
33151;BME280;19508;42.578;23.416;2023-03-04T03:54:10;93614.97;;;4.45;80.17
33151;BME280;19508;42.578;23.416;2023-03-04T03:56:35;93619.34;;;4.40;80.78
33151;BME280;19508;42.578;23.416;2023-03-04T03:59:00;93619.66;;;4.25;81.32
33151;BME280;19508;42.578;23.416;2023-03-04T04:01:26;93605.22;;;4.14;81.41
33151;BME280;19508;42.578;23.416;2023-03-04T04:03:51;93607.66;;;4.16;81.70
33151;BME280;19508;42.578;23.416;2023-03-04T04:06:17;93607.31;;;4.12;80.78
33151;BME280;19508;42.578;23.416;2023-03-04T04:08:42;93609.78;;;4.07;81.18
33151;BME280;19508;42.578;23.416;2023-03-04T04:11:09;93617.66;;;4.02;80.99
33151;BME280;19508;42.578;23.416;2023-03-04T04:13:34;93600.34;;;3.86;80.91
33151;BME280;19508;42.578;23.416;2023-03-04T04:16:00;93606.31;;;3.82;80.45
33151;BME280;19508;42.578;23.416;2023-03-04T04:18:25;93616.91;;;3.63;80.88
33151;BME280;19508;42.578;23.416;2023-03-04T04:20:51;93606.53;;;3.55;81.53
33151;BME280;19508;42.578;23.416;2023-03-04T04:23:17;93613.06;;;3.59;82.20
33151;BME280;19508;42.578;23.416;2023-03-04T04:25:42;93609.56;;;3.59;82.25
33151;BME280;19508;42.578;23.416;2023-03-04T04:28:08;93598.41;;;3.44;82.22
33151;BME280;19508;42.578;23.416;2023-03-04T04:30:33;93596.34;;;3.46;81.55
33151;BME280;19508;42.578;23.416;2023-03-04T04:32:59;93623.78;;;3.46;81.71
33151;BME280;19508;42.578;23.416;2023-03-04T04:35:29;93612.81;;;3.36;82.15
33151;BME280;19508;42.578;23.416;2023-03-04T04:37:54;93608.66;;;3.40;81.93
33151;BME280;19508;42.578;23.416;2023-03-04T04:40:19;93603.31;;;3.47;82.20
33151;BME280;19508;42.578;23.416;2023-03-04T04:42:45;93593.47;;;3.47;82.99
33151;BME280;19508;42.578;23.416;2023-03-04T04:45:10;93597.34;;;3.51;83.07
33151;BME280;19508;42.578;23.416;2023-03-04T04:47:36;93609.78;;;3.57;82.23
33151;BME280;19508;42.578;23.416;2023-03-04T04:50:01;93597.13;;;3.53;82.57
33151;BME280;19508;42.578;23.416;2023-03-04T04:52:27;93608.94;;;3.63;82.92
33151;BME280;19508;42.578;23.416;2023-03-04T04:54:55;93616.22;;;3.75;83.08
33151;BME280;19508;42.578;23.416;2023-03-04T04:57:21;93601.13;;;3.68;83.25
33151;BME280;19508;42.578;23.416;2023-03-04T04:59:46;93613.75;;;3.73;83.76
33151;BME280;19508;42.578;23.416;2023-03-04T05:02:13;93609.44;;;3.79;83.05
33151;BME280;19508;42.578;23.416;2023-03-04T05:04:38;93608.13;;;3.88;82.78
33151;BME280;19508;42.578;23.416;2023-03-04T05:07:03;93614.03;;;3.90;82.37
33151;BME280;19508;42.578;23.416;2023-03-04T05:09:29;93615.06;;;3.89;83.25
33151;BME280;19508;42.578;23.416;2023-03-04T05:11:54;93614.50;;;3.87;83.67
33151;BME280;19508;42.578;23.416;2023-03-04T05:14:20;93616.44;;;3.98;83.14
33151;BME280;19508;42.578;23.416;2023-03-04T05:16:45;93624.59;;;4.03;82.76
33151;BME280;19508;42.578;23.416;2023-03-04T05:19:10;93619.91;;;3.99;82.60
33151;BME280;19508;42.578;23.416;2023-03-04T05:21:36;93634.72;;;3.94;82.82
33151;BME280;19508;42.578;23.416;2023-03-04T05:24:01;93629.09;;;3.78;83.23
33151;BME280;19508;42.578;23.416;2023-03-04T05:26:27;93630.88;;;3.84;83.86
33151;BME280;19508;42.578;23.416;2023-03-04T05:28:52;93638.25;;;3.88;83.45
33151;BME280;19508;42.578;23.416;2023-03-04T05:31:20;93642.56;;;3.83;84.27
33151;BME280;19508;42.578;23.416;2023-03-04T05:33:45;93635.91;;;3.99;83.93
33151;BME280;19508;42.578;23.416;2023-03-04T05:36:11;93636.69;;;4.49;82.75
33151;BME280;19508;42.578;23.416;2023-03-04T05:38:36;93636.72;;;4.42;83.13
33151;BME280;19508;42.578;23.416;2023-03-04T05:41:05;93638.28;;;4.32;83.31
33151;BME280;19508;42.578;23.416;2023-03-04T05:43:31;93649.53;;;4.34;83.26
33151;BME280;19508;42.578;23.416;2023-03-04T05:46:00;93644.38;;;4.39;82.79
33151;BME280;19508;42.578;23.416;2023-03-04T05:48:25;93644.25;;;4.70;82.89
33151;BME280;19508;42.578;23.416;2023-03-04T05:50:54;93651.22;;;4.90;81.71
33151;BME280;19508;42.578;23.416;2023-03-04T05:53:19;93650.34;;;4.96;82.04
33151;BME280;19508;42.578;23.416;2023-03-04T05:55:46;93649.44;;;5.02;82.49
33151;BME280;19508;42.578;23.416;2023-03-04T05:58:12;93645.38;;;5.29;82.31
33151;BME280;19508;42.578;23.416;2023-03-04T06:00:37;93642.59;;;5.54;82.67
33151;BME280;19508;42.578;23.416;2023-03-04T06:03:02;93643.41;;;5.55;82.99
33151;BME280;19508;42.578;23.416;2023-03-04T06:05:28;93644.31;;;5.79;83.24
33151;BME280;19508;42.578;23.416;2023-03-04T06:07:56;93643.13;;;5.75;81.32
33151;BME280;19508;42.578;23.416;2023-03-04T06:10:21;93644.72;;;5.34;81.09
33151;BME280;19508;42.578;23.416;2023-03-04T06:12:47;93630.91;;;5.07;80.61
33151;BME280;19508;42.578;23.416;2023-03-04T06:15:15;93653.41;;;5.11;80.67
33151;BME280;19508;42.578;23.416;2023-03-04T06:17:42;93654.28;;;5.42;80.50
33151;BME280;19508;42.578;23.416;2023-03-04T06:20:09;93650.75;;;5.59;79.40
33151;BME280;19508;42.578;23.416;2023-03-04T06:22:34;93659.03;;;6.00;78.56
33151;BME280;19508;42.578;23.416;2023-03-04T06:25:00;93643.69;;;5.65;77.93
33151;BME280;19508;42.578;23.416;2023-03-04T06:27:26;93655.25;;;5.89;76.93
33151;BME280;19508;42.578;23.416;2023-03-04T06:29:51;93644.50;;;5.96;76.38
33151;BME280;19508;42.578;23.416;2023-03-04T06:32:17;93666.25;;;6.11;76.15
33151;BME280;19508;42.578;23.416;2023-03-04T06:34:42;93671.03;;;6.32;76.84
33151;BME280;19508;42.578;23.416;2023-03-04T06:37:08;93662.69;;;6.40;76.61
33151;BME280;19508;42.578;23.416;2023-03-04T06:39:33;93667.81;;;6.65;76.51
33151;BME280;19508;42.578;23.416;2023-03-04T06:41:58;93676.22;;;6.69;76.26
33151;BME280;19508;42.578;23.416;2023-03-04T06:44:24;93673.88;;;6.84;75.16
33151;BME280;19508;42.578;23.416;2023-03-04T06:46:49;93662.69;;;6.87;74.89
33151;BME280;19508;42.578;23.416;2023-03-04T06:49:15;93672.00;;;6.73;74.98
33151;BME280;19508;42.578;23.416;2023-03-04T06:51:40;93669.22;;;6.56;74.80
33151;BME280;19508;42.578;23.416;2023-03-04T06:54:06;93674.94;;;6.60;74.76
33151;BME280;19508;42.578;23.416;2023-03-04T06:56:31;93679.78;;;6.74;73.95
33151;BME280;19508;42.578;23.416;2023-03-04T06:58:56;93674.44;;;6.28;73.99
33151;BME280;19508;42.578;23.416;2023-03-04T07:01:24;93680.72;;;6.45;74.62
33151;BME280;19508;42.578;23.416;2023-03-04T07:03:50;93676.06;;;6.99;74.12
33151;BME280;19508;42.578;23.416;2023-03-04T07:06:21;93675.25;;;7.10;73.42
33151;BME280;19508;42.578;23.416;2023-03-04T07:08:47;93684.78;;;7.06;72.80
33151;BME280;19508;42.578;23.416;2023-03-04T07:11:14;93680.34;;;7.00;73.01
33151;BME280;19508;42.578;23.416;2023-03-04T07:13:40;93679.84;;;7.38;72.54
33151;BME280;19508;42.578;23.416;2023-03-04T07:16:11;93675.56;;;7.66;71.40
33151;BME280;19508;42.578;23.416;2023-03-04T07:18:37;93679.47;;;7.75;71.37
33151;BME280;19508;42.578;23.416;2023-03-04T07:21:04;93673.97;;;7.81;70.15
33151;BME280;19508;42.578;23.416;2023-03-04T07:23:29;93691.19;;;7.85;69.45
33151;BME280;19508;42.578;23.416;2023-03-04T07:25:55;93683.25;;;7.90;69.70
33151;BME280;19508;42.578;23.416;2023-03-04T07:28:21;93680.47;;;7.85;68.75
33151;BME280;19508;42.578;23.416;2023-03-04T07:30:46;93681.00;;;7.99;69.01
33151;BME280;19508;42.578;23.416;2023-03-04T07:33:12;93685.50;;;7.82;70.80
33151;BME280;19508;42.578;23.416;2023-03-04T07:35:38;93683.34;;;7.67;71.91
33151;BME280;19508;42.578;23.416;2023-03-04T07:38:04;93661.09;;;7.67;71.73
33151;BME280;19508;42.578;23.416;2023-03-04T07:40:29;93679.72;;;8.18;71.00
33151;BME280;19508;42.578;23.416;2023-03-04T07:42:55;93685.25;;;8.29;70.03
33151;BME280;19508;42.578;23.416;2023-03-04T07:45:21;93683.16;;;8.31;70.06
33151;BME280;19508;42.578;23.416;2023-03-04T07:47:47;93677.63;;;8.20;69.79
33151;BME280;19508;42.578;23.416;2023-03-04T07:50:13;93679.44;;;8.32;69.43
33151;BME280;19508;42.578;23.416;2023-03-04T07:52:40;93678.19;;;8.23;69.99
33151;BME280;19508;42.578;23.416;2023-03-04T07:55:06;93679.78;;;8.35;69.20
33151;BME280;19508;42.578;23.416;2023-03-04T07:57:31;93677.38;;;8.22;69.53
33151;BME280;19508;42.578;23.416;2023-03-04T07:59:57;93673.44;;;8.41;68.85
33151;BME280;19508;42.578;23.416;2023-03-04T08:02:22;93682.00;;;8.27;67.92
33151;BME280;19508;42.578;23.416;2023-03-04T08:04:48;93681.84;;;8.16;68.09
33151;BME280;19508;42.578;23.416;2023-03-04T08:07:13;93670.19;;;8.39;67.98
33151;BME280;19508;42.578;23.416;2023-03-04T08:09:39;93678.66;;;8.48;67.38
33151;BME280;19508;42.578;23.416;2023-03-04T08:12:04;93670.75;;;8.41;66.95
33151;BME280;19508;42.578;23.416;2023-03-04T08:14:29;93678.25;;;8.39;66.67
33151;BME280;19508;42.578;23.416;2023-03-04T08:16:55;93670.78;;;8.97;65.17
33151;BME280;19508;42.578;23.416;2023-03-04T08:19:20;93667.25;;;8.74;65.04
33151;BME280;19508;42.578;23.416;2023-03-04T08:21:46;93668.88;;;8.75;65.09
33151;BME280;19508;42.578;23.416;2023-03-04T08:24:11;93672.13;;;8.77;65.41
33151;BME280;19508;42.578;23.416;2023-03-04T08:26:40;93669.25;;;9.01;64.76
33151;BME280;19508;42.578;23.416;2023-03-04T08:29:08;93668.28;;;9.29;63.03
33151;BME280;19508;42.578;23.416;2023-03-04T08:31:34;93669.91;;;9.30;62.90
33151;BME280;19508;42.578;23.416;2023-03-04T08:34:02;93673.72;;;9.56;61.70
33151;BME280;19508;42.578;23.416;2023-03-04T08:36:28;93669.53;;;9.21;62.46
33151;BME280;19508;42.578;23.416;2023-03-04T08:38:53;93669.13;;;9.13;63.11
33151;BME280;19508;42.578;23.416;2023-03-04T08:41:18;93662.00;;;9.01;63.60
33151;BME280;19508;42.578;23.416;2023-03-04T08:43:44;93671.09;;;9.17;63.04
33151;BME280;19508;42.578;23.416;2023-03-04T08:46:10;93660.34;;;9.17;63.60
33151;BME280;19508;42.578;23.416;2023-03-04T08:48:36;93654.25;;;9.05;63.27
33151;BME280;19508;42.578;23.416;2023-03-04T08:51:07;93671.66;;;8.81;64.37
33151;BME280;19508;42.578;23.416;2023-03-04T08:53:33;93653.66;;;9.20;63.62
33151;BME280;19508;42.578;23.416;2023-03-04T08:55:58;93669.38;;;8.89;65.18
33151;BME280;19508;42.578;23.416;2023-03-04T08:58:23;93664.91;;;9.39;63.29
33151;BME280;19508;42.578;23.416;2023-03-04T09:00:49;93666.06;;;9.43;62.98
33151;BME280;19508;42.578;23.416;2023-03-04T09:03:17;93648.41;;;9.30;62.24
33151;BME280;19508;42.578;23.416;2023-03-04T09:05:47;93659.97;;;9.30;63.08
33151;BME280;19508;42.578;23.416;2023-03-04T09:08:16;93641.38;;;9.24;62.32
33151;BME280;19508;42.578;23.416;2023-03-04T09:10:43;93655.81;;;9.01;63.72
33151;BME280;19508;42.578;23.416;2023-03-04T09:13:09;93652.34;;;9.22;62.96
33151;BME280;19508;42.578;23.416;2023-03-04T09:15:47;93650.25;;;9.73;62.25
33151;BME280;19508;42.578;23.416;2023-03-04T09:18:13;93654.59;;;9.74;61.55
33151;BME280;19508;42.578;23.416;2023-03-04T09:20:39;93650.84;;;9.75;61.64
33151;BME280;19508;42.578;23.416;2023-03-04T09:23:05;93647.75;;;9.88;61.12
33151;BME280;19508;42.578;23.416;2023-03-04T09:25:31;93637.75;;;10.11;60.49
33151;BME280;19508;42.578;23.416;2023-03-04T09:27:57;93650.41;;;9.83;61.81
33151;BME280;19508;42.578;23.416;2023-03-04T09:30:25;93644.56;;;10.18;59.75
33151;BME280;19508;42.578;23.416;2023-03-04T09:32:50;93645.56;;;10.39;58.21
33151;BME280;19508;42.578;23.416;2023-03-04T09:35:16;93639.16;;;10.45;58.31
33151;BME280;19508;42.578;23.416;2023-03-04T09:37:41;93635.81;;;10.65;58.67
33151;BME280;19508;42.578;23.416;2023-03-04T09:40:10;93639.84;;;10.63;58.82
33151;BME280;19508;42.578;23.416;2023-03-04T09:42:46;93641.28;;;9.89;60.90
33151;BME280;19508;42.578;23.416;2023-03-04T09:45:16;93624.44;;;9.99;60.06
33151;BME280;19508;42.578;23.416;2023-03-04T09:47:43;93638.16;;;9.71;59.99
33151;BME280;19508;42.578;23.416;2023-03-04T09:50:10;93627.16;;;10.26;59.02
33151;BME280;19508;42.578;23.416;2023-03-04T10:00:31;93622.78;;;10.89;57.65
33151;BME280;19508;42.578;23.416;2023-03-04T10:05:45;93619.38;;;11.04;57.33
33151;BME280;19508;42.578;23.416;2023-03-04T10:10:42;93608.63;;;11.72;55.92
33151;BME280;19508;42.578;23.416;2023-03-04T10:13:20;93602.00;;;12.66;53.77
33151;BME280;19508;42.578;23.416;2023-03-04T10:15:49;93594.63;;;13.17;51.12
33151;BME280;19508;42.578;23.416;2023-03-04T10:18:21;93595.84;;;13.61;50.30
33151;BME280;19508;42.578;23.416;2023-03-04T10:20:56;93591.72;;;13.78;47.75
33151;BME280;19508;42.578;23.416;2023-03-04T10:23:26;93590.88;;;13.08;50.74
33151;BME280;19508;42.578;23.416;2023-03-04T10:25:52;93590.16;;;13.57;49.12
33151;BME280;19508;42.578;23.416;2023-03-04T10:28:26;93583.03;;;13.81;49.72
33151;BME280;19508;42.578;23.416;2023-03-04T10:33:30;93558.31;;;13.44;48.68
33151;BME280;19508;42.578;23.416;2023-03-04T10:36:17;93568.63;;;13.37;50.27
33151;BME280;19508;42.578;23.416;2023-03-04T10:38:53;93561.50;;;13.56;47.91
33151;BME280;19508;42.578;23.416;2023-03-04T10:41:20;93573.91;;;13.67;47.08
33151;BME280;19508;42.578;23.416;2023-03-04T10:46:41;93560.09;;;12.89;50.62
33151;BME280;19508;42.578;23.416;2023-03-04T10:49:09;93555.41;;;13.15;50.73
33151;BME280;19508;42.578;23.416;2023-03-04T10:51:43;93543.81;;;13.19;50.68
33151;BME280;19508;42.578;23.416;2023-03-04T10:54:47;93550.44;;;12.52;52.34
33151;BME280;19508;42.578;23.416;2023-03-04T10:57:16;93550.97;;;12.44;52.09
33151;BME280;19508;42.578;23.416;2023-03-04T10:59:57;93541.78;;;11.99;53.93
33151;BME280;19508;42.578;23.416;2023-03-04T11:02:32;93534.22;;;12.22;54.10
33151;BME280;19508;42.578;23.416;2023-03-04T11:07:44;93525.59;;;12.40;53.94
33151;BME280;19508;42.578;23.416;2023-03-04T11:12:40;93511.56;;;12.18;54.92
33151;BME280;19508;42.578;23.416;2023-03-04T11:15:20;93511.22;;;12.70;54.59
33151;BME280;19508;42.578;23.416;2023-03-04T11:18:03;93506.34;;;12.72;53.78
33151;BME280;19508;42.578;23.416;2023-03-04T11:20:36;93498.25;;;12.72;52.91
33151;BME280;19508;42.578;23.416;2023-03-04T11:23:10;93500.50;;;12.39;53.47
33151;BME280;19508;42.578;23.416;2023-03-04T11:25:40;93495.91;;;12.40;53.29
33151;BME280;19508;42.578;23.416;2023-03-04T11:28:20;93492.94;;;12.41;53.64
33151;BME280;19508;42.578;23.416;2023-03-04T11:30:51;93481.63;;;12.24;53.63
33151;BME280;19508;42.578;23.416;2023-03-04T11:38:50;93477.69;;;14.24;47.75
33151;BME280;19508;42.578;23.416;2023-03-04T11:41:31;93478.28;;;14.50;48.64
33151;BME280;19508;42.578;23.416;2023-03-04T11:44:00;93463.25;;;15.53;45.06
33151;BME280;19508;42.578;23.416;2023-03-04T12:19:29;93436.47;;;12.50;52.03
33151;BME280;19508;42.578;23.416;2023-03-04T12:35:46;93434.38;;;12.17;53.79
33151;BME280;19508;42.578;23.416;2023-03-04T12:43:40;93417.63;;;12.25;53.31
33151;BME280;19508;42.578;23.416;2023-03-04T12:52:18;93417.53;;;12.55;52.47
33151;BME280;19508;42.578;23.416;2023-03-04T12:54:52;93413.47;;;12.63;53.34
33151;BME280;19508;42.578;23.416;2023-03-04T12:57:24;93412.13;;;12.65;52.49
33151;BME280;19508;42.578;23.416;2023-03-04T13:02:58;93405.72;;;12.41;53.75
33151;BME280;19508;42.578;23.416;2023-03-04T13:14:25;93385.75;;;12.42;53.67
33151;BME280;19508;42.578;23.416;2023-03-04T13:16:56;93381.38;;;12.46;52.99
33151;BME280;19508;42.578;23.416;2023-03-04T13:22:27;93384.69;;;12.28;53.19
33151;BME280;19508;42.578;23.416;2023-03-04T13:24:53;93377.69;;;12.27;53.88
33151;BME280;19508;42.578;23.416;2023-03-04T13:27:48;93383.69;;;12.78;52.19
33151;BME280;19508;42.578;23.416;2023-03-04T13:36:05;93369.03;;;12.30;53.66
33151;BME280;19508;42.578;23.416;2023-03-04T13:38:35;93361.28;;;12.03;54.78
33151;BME280;19508;42.578;23.416;2023-03-04T13:46:40;93365.56;;;12.19;54.37
33151;BME280;19508;42.578;23.416;2023-03-04T13:49:15;93363.69;;;12.14;55.26
33151;BME280;19508;42.578;23.416;2023-03-04T13:51:44;93363.13;;;12.18;55.62
33151;BME280;19508;42.578;23.416;2023-03-04T13:54:30;93355.63;;;11.99;55.35
33151;BME280;19508;42.578;23.416;2023-03-04T14:02:16;93346.28;;;12.56;54.01
33151;BME280;19508;42.578;23.416;2023-03-04T14:04:56;93349.59;;;12.33;54.43
33151;BME280;19508;42.578;23.416;2023-03-04T14:07:37;93341.25;;;12.19;55.30
33151;BME280;19508;42.578;23.416;2023-03-04T14:10:17;93350.03;;;12.55;53.82
33151;BME280;19508;42.578;23.416;2023-03-04T14:12:48;93338.41;;;12.55;53.49
33151;BME280;19508;42.578;23.416;2023-03-04T14:17:45;93328.47;;;12.45;54.85
33151;BME280;19508;42.578;23.416;2023-03-04T14:20:35;93327.25;;;12.12;54.95
33151;BME280;19508;42.578;23.416;2023-03-04T14:25:47;93324.91;;;11.80;57.03
33151;BME280;19508;42.578;23.416;2023-03-04T14:28:18;93332.16;;;11.69;56.77
33151;BME280;19508;42.578;23.416;2023-03-04T14:30:55;93329.47;;;11.79;57.03
33151;BME280;19508;42.578;23.416;2023-03-04T14:33:24;93341.06;;;11.59;56.77
33151;BME280;19508;42.578;23.416;2023-03-04T14:35:52;93323.84;;;11.35;57.67
33151;BME280;19508;42.578;23.416;2023-03-04T14:41:10;93326.50;;;11.61;58.08
33151;BME280;19508;42.578;23.416;2023-03-04T14:44:10;93322.72;;;11.92;56.34
33151;BME280;19508;42.578;23.416;2023-03-04T14:46:46;93316.75;;;12.05;56.10
33151;BME280;19508;42.578;23.416;2023-03-04T14:49:13;93316.25;;;11.98;55.80
33151;BME280;19508;42.578;23.416;2023-03-04T14:51:50;93314.06;;;12.00;55.72
33151;BME280;19508;42.578;23.416;2023-03-04T14:54:37;93308.16;;;11.78;56.83
33151;BME280;19508;42.578;23.416;2023-03-04T14:59:43;93309.75;;;11.79;56.51
33151;BME280;19508;42.578;23.416;2023-03-04T15:02:34;93313.53;;;11.78;56.56
33151;BME280;19508;42.578;23.416;2023-03-04T15:05:25;93311.16;;;11.51;57.26
33151;BME280;19508;42.578;23.416;2023-03-04T15:07:53;93311.44;;;11.39;57.58
33151;BME280;19508;42.578;23.416;2023-03-04T15:10:25;93307.41;;;11.32;57.97
33151;BME280;19508;42.578;23.416;2023-03-04T15:12:52;93310.38;;;11.25;58.26